sensor_id;sensor_type;location;lat;lon;timestamp;pressure;altitude;pressure_sealevel;temperature;humidity
41515;BME280;27247;48.020;16.720;2023-09-07T00:02:30;100542.53;;;14.96;91.34
41515;BME280;27247;48.020;16.720;2023-09-07T00:06:41;100529.00;;;14.90;92.41
41515;BME280;27247;48.020;16.720;2023-09-07T00:10:54;100530.56;;;14.84;86.95
41515;BME280;27247;48.020;16.720;2023-09-07T00:15:05;100525.09;;;14.78;87.84
41515;BME280;27247;48.020;16.720;2023-09-07T00:19:18;100536.88;;;14.77;88.96
41515;BME280;27247;48.020;16.720;2023-09-07T00:23:29;100539.66;;;14.83;90.28
41515;BME280;27247;48.020;16.720;2023-09-07T00:27:40;100537.81;;;14.84;92.93
41515;BME280;27247;48.020;16.720;2023-09-07T00:31:50;100537.25;;;14.74;93.95
41515;BME280;27247;48.020;16.720;2023-09-07T00:36:02;100537.06;;;14.75;94.49
41515;BME280;27247;48.020;16.720;2023-09-07T00:40:13;100525.56;;;14.66;93.86
41515;BME280;27247;48.020;16.720;2023-09-07T00:44:23;100534.50;;;14.44;86.67
41515;BME280;27247;48.020;16.720;2023-09-07T00:48:34;100527.41;;;14.28;93.80
41515;BME280;27247;48.020;16.720;2023-09-07T00:52:45;100526.16;;;14.01;95.22
41515;BME280;27247;48.020;16.720;2023-09-07T00:56:57;100527.22;;;13.92;94.51
41515;BME280;27247;48.020;16.720;2023-09-07T01:01:07;100520.72;;;13.87;99.67
41515;BME280;27247;48.020;16.720;2023-09-07T01:05:19;100514.88;;;13.83;100.00
41515;BME280;27247;48.020;16.720;2023-09-07T01:09:32;100508.56;;;13.76;100.00
41515;BME280;27247;48.020;16.720;2023-09-07T01:13:44;100515.94;;;13.74;100.00
41515;BME280;27247;48.020;16.720;2023-09-07T01:17:56;100510.28;;;13.92;98.58
41515;BME280;27247;48.020;16.720;2023-09-07T01:22:08;100518.03;;;13.87;98.48
41515;BME280;27247;48.020;16.720;2023-09-07T01:26:19;100514.81;;;13.91;99.16
41515;BME280;27247;48.020;16.720;2023-09-07T01:30:30;100519.47;;;13.97;98.44
41515;BME280;27247;48.020;16.720;2023-09-07T01:34:40;100520.75;;;14.01;96.60
41515;BME280;27247;48.020;16.720;2023-09-07T01:38:50;100513.25;;;13.97;94.00
41515;BME280;27247;48.020;16.720;2023-09-07T01:43:01;100517.31;;;13.93;92.67
41515;BME280;27247;48.020;16.720;2023-09-07T01:47:11;100518.88;;;13.87;91.19
41515;BME280;27247;48.020;16.720;2023-09-07T01:51:21;100516.38;;;13.86;91.44
41515;BME280;27247;48.020;16.720;2023-09-07T01:55:32;100516.53;;;13.84;91.97
41515;BME280;27247;48.020;16.720;2023-09-07T01:59:42;100517.19;;;14.09;93.68
41515;BME280;27247;48.020;16.720;2023-09-07T02:03:53;100525.19;;;13.94;95.37
41515;BME280;27247;48.020;16.720;2023-09-07T02:08:04;100521.09;;;13.84;94.63
41515;BME280;27247;48.020;16.720;2023-09-07T02:12:15;100524.91;;;13.89;94.38
41515;BME280;27247;48.020;16.720;2023-09-07T02:16:25;100524.47;;;14.00;92.89
41515;BME280;27247;48.020;16.720;2023-09-07T02:20:36;100525.75;;;13.90;92.96
41515;BME280;27247;48.020;16.720;2023-09-07T02:24:47;100531.28;;;13.88;92.87
41515;BME280;27247;48.020;16.720;2023-09-07T02:28:57;100545.25;;;13.84;92.20
41515;BME280;27247;48.020;16.720;2023-09-07T02:33:08;100552.47;;;13.83;91.79
41515;BME280;27247;48.020;16.720;2023-09-07T02:37:18;100544.06;;;13.86;89.85
41515;BME280;27247;48.020;16.720;2023-09-07T02:41:28;100549.56;;;13.70;88.75
41515;BME280;27247;48.020;16.720;2023-09-07T02:45:39;100543.53;;;13.68;88.94
41515;BME280;27247;48.020;16.720;2023-09-07T02:49:49;100548.31;;;13.50;88.38
41515;BME280;27247;48.020;16.720;2023-09-07T02:54:01;100552.84;;;13.49;88.29
41515;BME280;27247;48.020;16.720;2023-09-07T02:58:12;100551.22;;;13.40;89.85
41515;BME280;27247;48.020;16.720;2023-09-07T03:02:22;100560.25;;;13.47;91.15
41515;BME280;27247;48.020;16.720;2023-09-07T03:06:33;100560.91;;;13.49;93.21
41515;BME280;27247;48.020;16.720;2023-09-07T03:10:43;100559.59;;;13.45;94.71
41515;BME280;27247;48.020;16.720;2023-09-07T03:14:54;100555.44;;;13.34;95.67
41515;BME280;27247;48.020;16.720;2023-09-07T03:19:04;100546.56;;;13.34;95.75
41515;BME280;27247;48.020;16.720;2023-09-07T03:23:14;100550.28;;;13.25;94.55
41515;BME280;27247;48.020;16.720;2023-09-07T03:27:25;100548.97;;;13.21;94.72
41515;BME280;27247;48.020;16.720;2023-09-07T03:31:35;100550.16;;;13.18;96.58
41515;BME280;27247;48.020;16.720;2023-09-07T03:35:46;100547.97;;;13.22;96.22
41515;BME280;27247;48.020;16.720;2023-09-07T03:39:57;100551.13;;;13.25;96.36
41515;BME280;27247;48.020;16.720;2023-09-07T03:44:08;100544.56;;;13.28;96.14
41515;BME280;27247;48.020;16.720;2023-09-07T03:48:18;100549.72;;;13.37;93.49
41515;BME280;27247;48.020;16.720;2023-09-07T03:52:29;100553.16;;;13.23;94.26
41515;BME280;27247;48.020;16.720;2023-09-07T03:56:40;100557.38;;;13.18;95.42
41515;BME280;27247;48.020;16.720;2023-09-07T04:00:50;100557.69;;;13.23;95.37
41515;BME280;27247;48.020;16.720;2023-09-07T04:05:00;100561.03;;;13.25;95.77
41515;BME280;27247;48.020;16.720;2023-09-07T04:09:15;100559.00;;;13.27;95.87
41515;BME280;27247;48.020;16.720;2023-09-07T04:13:25;100559.22;;;13.17;93.71
41515;BME280;27247;48.020;16.720;2023-09-07T04:17:37;100562.09;;;13.07;92.53
41515;BME280;27247;48.020;16.720;2023-09-07T04:21:50;100563.13;;;12.98;92.14
41515;BME280;27247;48.020;16.720;2023-09-07T04:26:09;100574.41;;;12.86;94.35
41515;BME280;27247;48.020;16.720;2023-09-07T04:30:20;100566.66;;;12.91;94.54
41515;BME280;27247;48.020;16.720;2023-09-07T04:34:30;100574.56;;;12.92;94.16
41515;BME280;27247;48.020;16.720;2023-09-07T04:38:42;100577.38;;;12.99;93.26
41515;BME280;27247;48.020;16.720;2023-09-07T04:42:52;100581.59;;;12.93;93.08
41515;BME280;27247;48.020;16.720;2023-09-07T04:47:02;100581.13;;;12.82;94.19
41515;BME280;27247;48.020;16.720;2023-09-07T04:51:13;100582.78;;;12.83;93.73
41515;BME280;27247;48.020;16.720;2023-09-07T04:55:23;100585.31;;;12.84;94.84
41515;BME280;27247;48.020;16.720;2023-09-07T04:59:33;100589.50;;;12.78;95.66
41515;BME280;27247;48.020;16.720;2023-09-07T05:03:44;100594.53;;;12.82;96.92
41515;BME280;27247;48.020;16.720;2023-09-07T05:07:54;100598.69;;;12.92;97.88
41515;BME280;27247;48.020;16.720;2023-09-07T05:12:05;100601.56;;;12.91;98.29
41515;BME280;27247;48.020;16.720;2023-09-07T05:16:15;100601.34;;;13.00;100.00
41515;BME280;27247;48.020;16.720;2023-09-07T05:20:25;100616.75;;;13.06;100.00
41515;BME280;27247;48.020;16.720;2023-09-07T05:24:37;100608.50;;;13.16;100.00
41515;BME280;27247;48.020;16.720;2023-09-07T05:28:48;100604.47;;;13.28;100.00
41515;BME280;27247;48.020;16.720;2023-09-07T05:32:58;100618.88;;;13.35;100.00
41515;BME280;27247;48.020;16.720;2023-09-07T05:37:08;100617.13;;;13.51;100.00
41515;BME280;27247;48.020;16.720;2023-09-07T05:41:19;100620.22;;;13.70;100.00
41515;BME280;27247;48.020;16.720;2023-09-07T05:45:30;100619.66;;;13.83;100.00
41515;BME280;27247;48.020;16.720;2023-09-07T05:49:41;100617.50;;;14.01;100.00
41515;BME280;27247;48.020;16.720;2023-09-07T05:53:53;100620.75;;;14.20;100.00
41515;BME280;27247;48.020;16.720;2023-09-07T05:58:06;100621.59;;;14.43;100.00
41515;BME280;27247;48.020;16.720;2023-09-07T06:02:17;100632.16;;;14.67;100.00
41515;BME280;27247;48.020;16.720;2023-09-07T06:06:27;100634.97;;;14.89;100.00
41515;BME280;27247;48.020;16.720;2023-09-07T06:10:37;100629.03;;;15.08;100.00
41515;BME280;27247;48.020;16.720;2023-09-07T06:14:48;100616.78;;;15.35;100.00
41515;BME280;27247;48.020;16.720;2023-09-07T06:18:58;100623.91;;;15.72;100.00
41515;BME280;27247;48.020;16.720;2023-09-07T06:23:09;100614.06;;;16.22;99.56
41515;BME280;27247;48.020;16.720;2023-09-07T06:27:19;100622.81;;;16.67;96.92
41515;BME280;27247;48.020;16.720;2023-09-07T06:31:29;100619.81;;;17.17;94.63
41515;BME280;27247;48.020;16.720;2023-09-07T06:35:40;100618.06;;;17.72;89.69
41515;BME280;27247;48.020;16.720;2023-09-07T06:39:50;100612.53;;;18.27;86.96
41515;BME280;27247;48.020;16.720;2023-09-07T06:44:01;100618.00;;;18.66;83.08
41515;BME280;27247;48.020;16.720;2023-09-07T06:48:11;100626.94;;;19.00;82.36
41515;BME280;27247;48.020;16.720;2023-09-07T06:52:22;100628.94;;;19.37;79.85
41515;BME280;27247;48.020;16.720;2023-09-07T06:56:33;100635.53;;;19.61;79.78
41515;BME280;27247;48.020;16.720;2023-09-07T07:00:44;100635.22;;;19.89;77.83
41515;BME280;27247;48.020;16.720;2023-09-07T07:04:56;100630.34;;;20.04;77.30
41515;BME280;27247;48.020;16.720;2023-09-07T07:09:06;100631.63;;;20.33;76.44
41515;BME280;27247;48.020;16.720;2023-09-07T07:13:16;100633.75;;;20.56;76.09
41515;BME280;27247;48.020;16.720;2023-09-07T07:17:27;100625.41;;;20.58;75.48
41515;BME280;27247;48.020;16.720;2023-09-07T07:21:37;100629.56;;;20.85;74.91
41515;BME280;27247;48.020;16.720;2023-09-07T07:25:47;100624.16;;;21.03;73.50
41515;BME280;27247;48.020;16.720;2023-09-07T07:29:58;100624.63;;;21.19;73.12
41515;BME280;27247;48.020;16.720;2023-09-07T07:34:08;100627.84;;;21.34;73.57
41515;BME280;27247;48.020;16.720;2023-09-07T07:38:18;100630.69;;;21.57;72.30
41515;BME280;27247;48.020;16.720;2023-09-07T07:42:29;100641.72;;;21.62;71.79
41515;BME280;27247;48.020;16.720;2023-09-07T07:46:40;100636.84;;;22.01;71.13
41515;BME280;27247;48.020;16.720;2023-09-07T07:50:50;100637.78;;;22.25;70.31
41515;BME280;27247;48.020;16.720;2023-09-07T07:55:00;100631.31;;;22.49;69.71
41515;BME280;27247;48.020;16.720;2023-09-07T07:59:11;100638.06;;;22.58;69.23
41515;BME280;27247;48.020;16.720;2023-09-07T08:03:21;100633.94;;;22.79;67.97
41515;BME280;27247;48.020;16.720;2023-09-07T08:07:31;100636.50;;;23.04;67.10
41515;BME280;27247;48.020;16.720;2023-09-07T08:11:42;100631.25;;;23.26;66.90
41515;BME280;27247;48.020;16.720;2023-09-07T08:15:52;100636.53;;;23.68;65.51
41515;BME280;27247;48.020;16.720;2023-09-07T08:20:03;100639.47;;;23.78;64.60
41515;BME280;27247;48.020;16.720;2023-09-07T08:24:13;100627.44;;;23.91;65.01
41515;BME280;27247;48.020;16.720;2023-09-07T08:28:24;100627.19;;;24.20;64.31
41515;BME280;27247;48.020;16.720;2023-09-07T08:32:35;100631.88;;;24.37;63.09
41515;BME280;27247;48.020;16.720;2023-09-07T08:36:46;100624.34;;;24.61;62.30
41515;BME280;27247;48.020;16.720;2023-09-07T08:41:01;100629.31;;;24.80;61.29
41515;BME280;27247;48.020;16.720;2023-09-07T08:45:13;100622.66;;;24.93;60.26
41515;BME280;27247;48.020;16.720;2023-09-07T08:49:25;100627.53;;;25.03;60.09
41515;BME280;27247;48.020;16.720;2023-09-07T08:53:37;100623.25;;;24.95;59.20
41515;BME280;27247;48.020;16.720;2023-09-07T08:57:49;100626.53;;;25.31;57.70
41515;BME280;27247;48.020;16.720;2023-09-07T09:02:00;100632.25;;;25.68;56.66
41515;BME280;27247;48.020;16.720;2023-09-07T09:06:11;100622.91;;;25.25;56.40
41515;BME280;27247;48.020;16.720;2023-09-07T09:10:22;100625.97;;;25.51;56.17
41515;BME280;27247;48.020;16.720;2023-09-07T09:14:32;100627.09;;;25.71;54.89
41515;BME280;27247;48.020;16.720;2023-09-07T09:18:52;100616.19;;;25.76;55.93
41515;BME280;27247;48.020;16.720;2023-09-07T09:23:03;100616.50;;;25.80;55.67
41515;BME280;27247;48.020;16.720;2023-09-07T09:27:14;100619.94;;;25.70;54.27
41515;BME280;27247;48.020;16.720;2023-09-07T09:31:25;100612.69;;;25.81;55.63
41515;BME280;27247;48.020;16.720;2023-09-07T09:35:35;100603.72;;;26.13;54.06
41515;BME280;27247;48.020;16.720;2023-09-07T09:39:49;100608.31;;;26.34;54.04
41515;BME280;27247;48.020;16.720;2023-09-07T09:44:03;100602.84;;;26.34;53.15
41515;BME280;27247;48.020;16.720;2023-09-07T09:48:14;100608.72;;;26.85;51.44
41515;BME280;27247;48.020;16.720;2023-09-07T09:52:26;100597.50;;;26.91;52.28
41515;BME280;27247;48.020;16.720;2023-09-07T09:56:37;100598.81;;;27.16;50.64
41515;BME280;27247;48.020;16.720;2023-09-07T10:00:54;100602.66;;;26.83;51.38
41515;BME280;27247;48.020;16.720;2023-09-07T10:05:11;100595.88;;;26.95;49.81
41515;BME280;27247;48.020;16.720;2023-09-07T10:09:22;100588.13;;;27.19;50.19
41515;BME280;27247;48.020;16.720;2023-09-07T10:13:32;100596.09;;;27.21;50.30
41515;BME280;27247;48.020;16.720;2023-09-07T10:17:46;100596.06;;;27.16;49.09
41515;BME280;27247;48.020;16.720;2023-09-07T10:22:00;100585.47;;;26.55;50.27
41515;BME280;27247;48.020;16.720;2023-09-07T10:26:12;100591.03;;;26.65;49.80
41515;BME280;27247;48.020;16.720;2023-09-07T10:30:23;100575.72;;;26.75;49.78
41515;BME280;27247;48.020;16.720;2023-09-07T10:34:35;100574.66;;;26.76;49.73
41515;BME280;27247;48.020;16.720;2023-09-07T10:38:48;100573.91;;;26.90;50.17
41515;BME280;27247;48.020;16.720;2023-09-07T10:43:02;100564.63;;;27.44;50.02
41515;BME280;27247;48.020;16.720;2023-09-07T10:47:14;100563.38;;;27.92;49.90
41515;BME280;27247;48.020;16.720;2023-09-07T10:51:24;100547.19;;;28.01;49.11
41515;BME280;27247;48.020;16.720;2023-09-07T10:55:38;100560.44;;;28.44;48.11
41515;BME280;27247;48.020;16.720;2023-09-07T10:59:50;100558.81;;;28.33;48.62
41515;BME280;27247;48.020;16.720;2023-09-07T11:04:00;100556.47;;;27.69;49.84
41515;BME280;27247;48.020;16.720;2023-09-07T11:08:11;100553.53;;;28.11;50.17
41515;BME280;27247;48.020;16.720;2023-09-07T11:12:21;100539.00;;;28.36;49.01
41515;BME280;27247;48.020;16.720;2023-09-07T11:16:35;100536.50;;;28.60;49.16
41515;BME280;27247;48.020;16.720;2023-09-07T11:20:45;100545.19;;;29.13;47.87
41515;BME280;27247;48.020;16.720;2023-09-07T11:24:56;100551.09;;;28.35;49.43
41515;BME280;27247;48.020;16.720;2023-09-07T11:29:06;100537.00;;;28.92;48.58
41515;BME280;27247;48.020;16.720;2023-09-07T11:33:17;100531.97;;;29.10;48.21
41515;BME280;27247;48.020;16.720;2023-09-07T11:37:27;100528.53;;;28.48;48.59
41515;BME280;27247;48.020;16.720;2023-09-07T11:41:42;100531.81;;;28.66;48.37
41515;BME280;27247;48.020;16.720;2023-09-07T11:45:52;100530.63;;;29.02;48.08
41515;BME280;27247;48.020;16.720;2023-09-07T11:50:03;100523.00;;;28.58;47.89
41515;BME280;27247;48.020;16.720;2023-09-07T11:54:13;100520.22;;;28.84;48.40
41515;BME280;27247;48.020;16.720;2023-09-07T11:58:24;100524.00;;;29.03;47.54
41515;BME280;27247;48.020;16.720;2023-09-07T12:02:38;100512.78;;;29.59;47.57
41515;BME280;27247;48.020;16.720;2023-09-07T12:06:48;100510.13;;;29.83;46.90
41515;BME280;27247;48.020;16.720;2023-09-07T12:10:59;100500.56;;;30.43;47.06
41515;BME280;27247;48.020;16.720;2023-09-07T12:15:10;100497.53;;;31.22;44.74
41515;BME280;27247;48.020;16.720;2023-09-07T12:19:23;100484.78;;;31.82;44.98
41515;BME280;27247;48.020;16.720;2023-09-07T12:23:34;100482.28;;;31.99;43.90
41515;BME280;27247;48.020;16.720;2023-09-07T12:27:44;100490.06;;;30.74;44.74
41515;BME280;27247;48.020;16.720;2023-09-07T12:31:56;100482.38;;;30.42;45.60
41515;BME280;27247;48.020;16.720;2023-09-07T12:36:07;100479.19;;;30.30;45.94
41515;BME280;27247;48.020;16.720;2023-09-07T12:40:20;100477.44;;;30.68;44.84
41515;BME280;27247;48.020;16.720;2023-09-07T12:44:30;100478.34;;;31.06;44.98
41515;BME280;27247;48.020;16.720;2023-09-07T12:48:40;100475.81;;;31.10;44.52
41515;BME280;27247;48.020;16.720;2023-09-07T12:52:51;100466.75;;;31.04;44.85
41515;BME280;27247;48.020;16.720;2023-09-07T12:57:01;100467.75;;;31.37;44.63
41515;BME280;27247;48.020;16.720;2023-09-07T13:01:11;100463.94;;;31.33;44.11
41515;BME280;27247;48.020;16.720;2023-09-07T13:05:25;100452.50;;;30.49;45.84
41515;BME280;27247;48.020;16.720;2023-09-07T13:09:35;100456.13;;;30.16;46.53
41515;BME280;27247;48.020;16.720;2023-09-07T13:13:46;100437.97;;;30.68;45.35
41515;BME280;27247;48.020;16.720;2023-09-07T13:17:56;100452.22;;;28.95;47.38
41515;BME280;27247;48.020;16.720;2023-09-07T13:22:06;100455.31;;;29.81;46.71
41515;BME280;27247;48.020;16.720;2023-09-07T13:26:17;100446.28;;;29.71;47.11
41515;BME280;27247;48.020;16.720;2023-09-07T13:30:27;100449.88;;;29.27;47.64
41515;BME280;27247;48.020;16.720;2023-09-07T13:34:38;100444.38;;;29.27;47.64
41515;BME280;27247;48.020;16.720;2023-09-07T13:38:48;100447.41;;;28.51;48.79
41515;BME280;27247;48.020;16.720;2023-09-07T13:42:58;100441.63;;;29.27;47.75
41515;BME280;27247;48.020;16.720;2023-09-07T13:47:09;100438.13;;;29.06;47.94
41515;BME280;27247;48.020;16.720;2023-09-07T13:51:19;100429.94;;;28.91;48.31
41515;BME280;27247;48.020;16.720;2023-09-07T13:55:29;100432.34;;;28.28;49.16
41515;BME280;27247;48.020;16.720;2023-09-07T13:59:40;100439.88;;;28.87;48.97
41515;BME280;27247;48.020;16.720;2023-09-07T14:03:50;100433.81;;;28.85;48.99
41515;BME280;27247;48.020;16.720;2023-09-07T14:08:01;100428.97;;;28.56;48.86
41515;BME280;27247;48.020;16.720;2023-09-07T14:12:11;100436.19;;;29.07;48.17
41515;BME280;27247;48.020;16.720;2023-09-07T14:16:22;100432.47;;;29.37;47.86
41515;BME280;27247;48.020;16.720;2023-09-07T14:20:33;100429.88;;;29.06;48.19
41515;BME280;27247;48.020;16.720;2023-09-07T14:24:43;100430.66;;;29.61;47.69
41515;BME280;27247;48.020;16.720;2023-09-07T14:28:53;100428.75;;;29.91;46.01
41515;BME280;27247;48.020;16.720;2023-09-07T14:33:04;100424.31;;;29.21;46.90
41515;BME280;27247;48.020;16.720;2023-09-07T14:37:15;100433.56;;;28.71;48.06
41515;BME280;27247;48.020;16.720;2023-09-07T14:41:25;100433.84;;;28.70;47.63
41515;BME280;27247;48.020;16.720;2023-09-07T14:45:36;100436.44;;;29.10;46.72
41515;BME280;27247;48.020;16.720;2023-09-07T14:49:47;100425.44;;;29.60;46.47
41515;BME280;27247;48.020;16.720;2023-09-07T14:53:57;100424.72;;;29.44;46.07
41515;BME280;27247;48.020;16.720;2023-09-07T14:58:08;100423.19;;;29.67;46.89
41515;BME280;27247;48.020;16.720;2023-09-07T15:02:19;100427.53;;;30.07;45.54
41515;BME280;27247;48.020;16.720;2023-09-07T15:06:30;100417.56;;;30.11;45.57
41515;BME280;27247;48.020;16.720;2023-09-07T15:10:43;100419.91;;;30.28;45.41
41515;BME280;27247;48.020;16.720;2023-09-07T15:14:54;100419.97;;;29.54;45.79
41515;BME280;27247;48.020;16.720;2023-09-07T15:19:04;100409.06;;;29.34;45.89
41515;BME280;27247;48.020;16.720;2023-09-07T15:23:15;100411.53;;;29.36;45.29
41515;BME280;27247;48.020;16.720;2023-09-07T15:27:25;100409.31;;;29.43;45.35
41515;BME280;27247;48.020;16.720;2023-09-07T15:31:36;100409.09;;;29.29;46.27
41515;BME280;27247;48.020;16.720;2023-09-07T15:35:47;100410.72;;;29.35;46.63
41515;BME280;27247;48.020;16.720;2023-09-07T15:39:58;100413.19;;;29.37;46.79
41515;BME280;27247;48.020;16.720;2023-09-07T15:44:09;100402.16;;;29.37;46.62
41515;BME280;27247;48.020;16.720;2023-09-07T15:48:19;100414.44;;;29.05;47.00
41515;BME280;27247;48.020;16.720;2023-09-07T15:52:30;100422.56;;;28.76;48.25
41515;BME280;27247;48.020;16.720;2023-09-07T15:56:41;100426.00;;;28.17;48.69
41515;BME280;27247;48.020;16.720;2023-09-07T16:00:52;100419.13;;;27.99;49.74
41515;BME280;27247;48.020;16.720;2023-09-07T16:05:03;100422.72;;;28.10;49.24
41515;BME280;27247;48.020;16.720;2023-09-07T16:09:14;100425.44;;;27.95;49.31
41515;BME280;27247;48.020;16.720;2023-09-07T16:13:26;100426.56;;;28.09;49.54
41515;BME280;27247;48.020;16.720;2023-09-07T16:17:36;100419.69;;;27.96;50.36
41515;BME280;27247;48.020;16.720;2023-09-07T16:21:48;100422.44;;;27.91;50.90
41515;BME280;27247;48.020;16.720;2023-09-07T16:25:58;100423.50;;;27.50;51.74
41515;BME280;27247;48.020;16.720;2023-09-07T16:30:09;100434.47;;;27.45;52.05
41515;BME280;27247;48.020;16.720;2023-09-07T16:34:19;100429.22;;;27.23;52.33
41515;BME280;27247;48.020;16.720;2023-09-07T16:38:30;100423.47;;;27.24;52.52
41515;BME280;27247;48.020;16.720;2023-09-07T16:42:41;100420.44;;;27.26;53.04
41515;BME280;27247;48.020;16.720;2023-09-07T16:46:52;100425.91;;;27.21;53.46
41515;BME280;27247;48.020;16.720;2023-09-07T16:51:03;100420.63;;;26.99;54.25
41515;BME280;27247;48.020;16.720;2023-09-07T16:55:13;100420.31;;;26.95;54.27
41515;BME280;27247;48.020;16.720;2023-09-07T16:59:24;100434.22;;;26.79;57.15
41515;BME280;27247;48.020;16.720;2023-09-07T17:03:37;100436.72;;;26.80;59.61
41515;BME280;27247;48.020;16.720;2023-09-07T17:07:48;100436.84;;;26.53;61.57
41515;BME280;27247;48.020;16.720;2023-09-07T17:11:58;100436.44;;;25.97;62.69
41515;BME280;27247;48.020;16.720;2023-09-07T17:16:09;100437.19;;;25.61;63.08
41515;BME280;27247;48.020;16.720;2023-09-07T17:20:20;100437.88;;;25.46;63.98
41515;BME280;27247;48.020;16.720;2023-09-07T17:24:31;100435.78;;;25.26;64.76
41515;BME280;27247;48.020;16.720;2023-09-07T17:28:42;100436.56;;;25.00;65.91
41515;BME280;27247;48.020;16.720;2023-09-07T17:32:53;100448.97;;;24.69;66.67
41515;BME280;27247;48.020;16.720;2023-09-07T17:37:07;100443.34;;;24.37;68.05
41515;BME280;27247;48.020;16.720;2023-09-07T17:41:17;100443.03;;;24.00;69.04
41515;BME280;27247;48.020;16.720;2023-09-07T17:45:28;100443.09;;;23.88;69.48
41515;BME280;27247;48.020;16.720;2023-09-07T17:49:38;100439.78;;;23.69;69.92
41515;BME280;27247;48.020;16.720;2023-09-07T17:53:49;100446.91;;;23.42;71.53
41515;BME280;27247;48.020;16.720;2023-09-07T17:58:01;100456.50;;;23.16;72.69
41515;BME280;27247;48.020;16.720;2023-09-07T18:02:25;100464.03;;;22.85;73.77
41515;BME280;27247;48.020;16.720;2023-09-07T18:06:38;100461.22;;;22.57;75.47
41515;BME280;27247;48.020;16.720;2023-09-07T18:10:49;100472.38;;;22.32;77.21
41515;BME280;27247;48.020;16.720;2023-09-07T18:15:01;100472.03;;;22.17;78.00
41515;BME280;27247;48.020;16.720;2023-09-07T18:19:12;100478.06;;;22.07;77.24
41515;BME280;27247;48.020;16.720;2023-09-07T18:23:23;100478.78;;;21.84;78.06
41515;BME280;27247;48.020;16.720;2023-09-07T18:27:38;100494.97;;;21.79;77.28
41515;BME280;27247;48.020;16.720;2023-09-07T18:31:50;100483.88;;;21.81;76.30
41515;BME280;27247;48.020;16.720;2023-09-07T18:36:06;100491.41;;;21.67;75.72
41515;BME280;27247;48.020;16.720;2023-09-07T18:40:19;100492.97;;;21.45;75.19
41515;BME280;27247;48.020;16.720;2023-09-07T18:44:29;100501.69;;;21.17;73.04
41515;BME280;27247;48.020;16.720;2023-09-07T18:48:40;100493.72;;;21.03;71.44
41515;BME280;27247;48.020;16.720;2023-09-07T18:52:51;100503.75;;;20.85;73.85
41515;BME280;27247;48.020;16.720;2023-09-07T18:57:04;100497.59;;;20.71;76.37
41515;BME280;27247;48.020;16.720;2023-09-07T19:01:17;100499.09;;;20.49;78.92
41515;BME280;27247;48.020;16.720;2023-09-07T19:05:28;100507.09;;;20.44;79.53
41515;BME280;27247;48.020;16.720;2023-09-07T19:09:39;100503.09;;;20.21;81.38
41515;BME280;27247;48.020;16.720;2023-09-07T19:13:49;100491.06;;;20.11;81.72
41515;BME280;27247;48.020;16.720;2023-09-07T19:18:01;100502.97;;;20.09;81.73
41515;BME280;27247;48.020;16.720;2023-09-07T19:22:23;100499.44;;;20.09;82.49
41515;BME280;27247;48.020;16.720;2023-09-07T19:26:38;100501.41;;;19.95;82.95
41515;BME280;27247;48.020;16.720;2023-09-07T19:30:49;100492.28;;;19.90;79.19
41515;BME280;27247;48.020;16.720;2023-09-07T19:35:00;100496.09;;;19.82;75.69
41515;BME280;27247;48.020;16.720;2023-09-07T19:39:14;100498.31;;;19.60;75.73
41515;BME280;27247;48.020;16.720;2023-09-07T19:43:26;100488.72;;;19.51;73.98
41515;BME280;27247;48.020;16.720;2023-09-07T19:47:40;100501.31;;;19.39;73.52
41515;BME280;27247;48.020;16.720;2023-09-07T19:51:50;100497.00;;;19.25;74.70
41515;BME280;27247;48.020;16.720;2023-09-07T19:56:10;100500.13;;;19.28;75.36
41515;BME280;27247;48.020;16.720;2023-09-07T20:00:22;100502.22;;;19.26;79.49
41515;BME280;27247;48.020;16.720;2023-09-07T20:04:35;100505.81;;;19.13;81.17
41515;BME280;27247;48.020;16.720;2023-09-07T20:08:45;100508.91;;;19.24;80.76
41515;BME280;27247;48.020;16.720;2023-09-07T20:12:56;100501.41;;;19.19;81.00
41515;BME280;27247;48.020;16.720;2023-09-07T20:17:07;100508.44;;;18.82;78.71
41515;BME280;27247;48.020;16.720;2023-09-07T20:21:24;100514.28;;;18.66;77.57
41515;BME280;27247;48.020;16.720;2023-09-07T20:25:35;100506.16;;;18.59;80.57
41515;BME280;27247;48.020;16.720;2023-09-07T20:29:46;100502.41;;;18.47;82.92
41515;BME280;27247;48.020;16.720;2023-09-07T20:33:57;100500.78;;;18.26;84.59
41515;BME280;27247;48.020;16.720;2023-09-07T20:38:09;100502.44;;;18.21;85.76
41515;BME280;27247;48.020;16.720;2023-09-07T20:42:20;100505.16;;;18.01;84.82
41515;BME280;27247;48.020;16.720;2023-09-07T20:46:31;100515.16;;;18.07;84.89
41515;BME280;27247;48.020;16.720;2023-09-07T20:50:41;100504.13;;;18.08;84.17
41515;BME280;27247;48.020;16.720;2023-09-07T20:54:54;100502.03;;;18.24;82.59
41515;BME280;27247;48.020;16.720;2023-09-07T20:59:05;100503.06;;;18.03;83.69
41515;BME280;27247;48.020;16.720;2023-09-07T21:03:19;100502.44;;;17.74;85.11
41515;BME280;27247;48.020;16.720;2023-09-07T21:07:29;100503.06;;;17.70;84.94
41515;BME280;27247;48.020;16.720;2023-09-07T21:11:39;100502.94;;;17.43;84.43
41515;BME280;27247;48.020;16.720;2023-09-07T21:15:50;100500.66;;;17.47;84.93
41515;BME280;27247;48.020;16.720;2023-09-07T21:20:00;100501.03;;;17.37;85.71
41515;BME280;27247;48.020;16.720;2023-09-07T21:24:10;100501.28;;;17.49;85.94
41515;BME280;27247;48.020;16.720;2023-09-07T21:28:21;100496.69;;;17.43;85.04
41515;BME280;27247;48.020;16.720;2023-09-07T21:32:31;100496.09;;;17.47;84.96
41515;BME280;27247;48.020;16.720;2023-09-07T21:36:42;100499.19;;;17.38;85.32